Time;durP1;ratioP1;P1;durP2;ratioP2;P2;SDS_P1;SDS_P2;PMS_P1;PMS_P2;Temp;Humidity;BMP_temperature;BMP_pressure;BME280_temperature;BME280_humidity;BME280_pressure;Samples;Min_cycle;Max_cycle;Signal;HPM_P1;HPM_P2
2022/03/14 00:00:42;;;;;;;23.65;10.75;;;;;;;;;;6240376;28;20184;-83
2022/03/14 00:03:55;;;;;;;20.87;9.57;;;;;;;;;;6244638;28;20470;-84
2022/03/14 00:06:58;;;;;;;21.83;10.40;;;;;;;;;;6244822;28;20042;-83
2022/03/14 00:10:01;;;;;;;22.60;9.88;;;;;;;;;;6245308;28;20385;-84
2022/03/14 00:13:07;;;;;;;21.50;10.50;;;;;;;;;;6244479;28;20056;-74
2022/03/14 00:16:17;;;;;;;22.02;10.43;;;;;;;;;;6241781;28;20042;-75
2022/03/14 00:19:20;;;;;;;22.67;10.38;;;;;;;;;;6239040;28;20056;-77
2022/03/14 00:22:24;;;;;;;19.73;9.73;;;;;;;;;;6240394;28;20045;-74
2022/03/14 00:25:28;;;;;;;22.88;10.30;;;;;;;;;;6240289;28;20491;-77
2022/03/14 00:28:31;;;;;;;23.75;9.77;;;;;;;;;;6240477;28;20483;-79
2022/03/14 00:31:36;;;;;;;23.27;11.20;;;;;;;;;;6242413;28;20091;-76
2022/03/14 00:34:42;;;;;;;25.50;10.95;;;;;;;;;;6244757;28;20041;-76
2022/03/14 00:37:44;;;;;;;22.45;9.85;;;;;;;;;;6244649;28;20081;-76
2022/03/14 00:40:48;;;;;;;20.25;9.48;;;;;;;;;;6244881;28;20049;-76
2022/03/14 00:43:51;;;;;;;21.95;9.93;;;;;;;;;;6244484;28;20038;-77
2022/03/14 00:46:55;;;;;;;22.35;11.32;;;;;;;;;;6244422;28;20084;-76
2022/03/14 00:50:01;;;;;;;22.00;10.13;;;;;;;;;;6244216;28;20079;-77
2022/03/14 00:53:04;;;;;;;22.95;9.77;;;;;;;;;;6244162;28;20037;-77
2022/03/14 00:56:10;;;;;;;23.25;10.38;;;;;;;;;;6244672;28;20049;-77
2022/03/14 00:59:13;;;;;;;20.67;9.65;;;;;;;;;;6244298;28;20045;-76
2022/03/14 01:02:19;;;;;;;21.48;9.60;;;;;;;;;;6244339;28;20052;-76
2022/03/14 01:05:23;;;;;;;19.17;9.20;;;;;;;;;;6243872;28;20041;-76
2022/03/14 01:08:25;;;;;;;24.25;9.20;;;;;;;;;;6244056;28;20046;-77
2022/03/14 01:11:28;;;;;;;21.67;9.57;;;;;;;;;;6243485;28;20053;-77
2022/03/14 01:14:31;;;;;;;21.25;9.27;;;;;;;;;;6243888;28;20052;-76
2022/03/14 01:17:36;;;;;;;23.02;10.45;;;;;;;;;;6242497;28;20052;-76
2022/03/14 01:20:39;;;;;;;21.10;10.05;;;;;;;;;;6243446;28;20041;-77
2022/03/14 01:23:44;;;;;;;21.98;10.18;;;;;;;;;;6243750;28;20052;-77
2022/03/14 01:26:47;;;;;;;21.23;10.23;;;;;;;;;;6243357;28;20412;-76
2022/03/14 01:29:50;;;;;;;22.58;9.73;;;;;;;;;;6243279;28;20053;-76
2022/03/14 01:32:54;;;;;;;23.25;11.02;;;;;;;;;;6243467;28;20051;-76
2022/03/14 01:35:57;;;;;;;25.23;10.60;;;;;;;;;;6243127;28;20053;-76
2022/03/14 01:39:00;;;;;;;22.63;10.43;;;;;;;;;;6243237;28;20060;-77
2022/03/14 01:42:03;;;;;;;19.83;10.65;;;;;;;;;;6241654;28;20352;-76
2022/03/14 01:45:06;;;;;;;23.02;9.98;;;;;;;;;;6241888;28;20128;-76
2022/03/14 01:48:11;;;;;;;21.55;9.90;;;;;;;;;;6243277;28;20054;-76
2022/03/14 01:51:16;;;;;;;21.42;9.73;;;;;;;;;;6242664;28;20046;-76
2022/03/14 01:54:19;;;;;;;21.17;9.88;;;;;;;;;;6242756;28;20045;-76
2022/03/14 01:57:22;;;;;;;21.17;10.85;;;;;;;;;;6242672;28;20057;-76
2022/03/14 02:00:25;;;;;;;19.10;9.25;;;;;;;;;;6241472;28;20045;-76
2022/03/14 02:03:29;;;;;;;20.63;10.02;;;;;;;;;;6242441;28;20408;-76
2022/03/14 02:06:35;;;;;;;18.60;9.57;;;;;;;;;;6242778;28;20042;-75
2022/03/14 02:09:38;;;;;;;24.38;10.32;;;;;;;;;;6242685;28;20514;-76
2022/03/14 02:12:42;;;;;;;23.17;9.98;;;;;;;;;;6242535;28;20041;-77
2022/03/14 02:15:46;;;;;;;19.58;9.93;;;;;;;;;;6241129;28;20063;-77
2022/03/14 02:18:50;;;;;;;18.52;9.35;;;;;;;;;;6242392;28;20045;-75
2022/03/14 02:21:58;;;;;;;18.42;9.60;;;;;;;;;;6242290;28;20053;-76
2022/03/14 02:25:01;;;;;;;21.02;9.25;;;;;;;;;;6241500;28;20052;-78
2022/03/14 02:28:06;;;;;;;21.52;10.07;;;;;;;;;;6240916;28;20523;-76
2022/03/14 02:31:09;;;;;;;18.42;9.40;;;;;;;;;;6242362;28;20049;-75
2022/03/14 02:34:12;;;;;;;22.05;9.82;;;;;;;;;;6242187;28;20663;-75
2022/03/14 02:37:17;;;;;;;19.70;10.18;;;;;;;;;;6240929;28;20053;-76
2022/03/14 02:40:20;;;;;;;23.30;8.95;;;;;;;;;;6241172;28;20045;-76
2022/03/14 02:43:24;;;;;;;19.20;9.48;;;;;;;;;;6240682;28;20400;-77
2022/03/14 02:46:29;;;;;;;22.17;9.55;;;;;;;;;;6242283;28;20049;-75
2022/03/14 02:49:33;;;;;;;20.83;10.35;;;;;;;;;;6242085;28;20041;-76
2022/03/14 02:52:38;;;;;;;;;;;;;;;;;;6242635;28;20052;-76
2022/03/14 02:55:45;;;;;;;19.40;9.85;;;;;;;;;;6241893;28;19921;-77
2022/03/14 02:58:52;;;;;;;18.02;9.65;;;;;;;;;;6240731;28;20037;-77
2022/03/14 03:01:55;;;;;;;21.45;10.25;;;;;;;;;;6241871;28;20054;-76
2022/03/14 03:04:59;;;;;;;19.30;10.18;;;;;;;;;;6241661;28;20045;-78
2022/03/14 03:08:04;;;;;;;22.87;9.73;;;;;;;;;;6241636;28;20049;-76
2022/03/14 03:11:08;;;;;;;18.77;8.57;;;;;;;;;;6241634;28;20797;-77
2022/03/14 03:14:12;;;;;;;21.77;9.77;;;;;;;;;;6241802;28;20045;-76
2022/03/14 03:17:15;;;;;;;23.48;9.77;;;;;;;;;;6241748;28;20060;-76
2022/03/14 03:20:18;;;;;;;21.00;9.13;;;;;;;;;;6240324;28;20439;-77
2022/03/14 03:23:21;;;;;;;23.42;10.50;;;;;;;;;;6241538;28;20053;-77
2022/03/14 03:26:26;;;;;;;23.63;10.75;;;;;;;;;;6241689;28;20042;-76
2022/03/14 03:29:28;;;;;;;21.13;9.90;;;;;;;;;;6241310;28;20508;-77
2022/03/14 03:32:35;;;;;;;19.33;9.90;;;;;;;;;;6241723;28;20049;-77
2022/03/14 03:35:40;;;;;;;21.45;9.38;;;;;;;;;;6225611;28;20049;-77
2022/03/14 03:38:43;;;;;;;19.85;9.25;;;;;;;;;;6245793;28;20046;-75
2022/03/14 03:41:48;;;;;;;19.70;9.45;;;;;;;;;;6246120;28;20067;-78
2022/03/14 03:44:51;;;;;;;22.42;9.23;;;;;;;;;;6228188;28;20052;-77
2022/03/14 03:47:54;;;;;;;22.48;10.18;;;;;;;;;;6246481;28;20053;-79
2022/03/14 03:50:57;;;;;;;23.33;10.15;;;;;;;;;;6244447;28;20049;-79
2022/03/14 03:54:02;;;;;;;21.85;10.00;;;;;;;;;;6245666;28;20054;-77
2022/03/14 03:57:07;;;;;;;22.70;11.02;;;;;;;;;;6245984;28;20115;-78
2022/03/14 04:00:12;;;;;;;19.10;9.45;;;;;;;;;;6245608;28;20048;-78
2022/03/14 04:03:19;;;;;;;25.15;9.90;;;;;;;;;;6245721;28;20041;-79
2022/03/14 04:06:27;;;;;;;23.42;9.75;;;;;;;;;;6244543;28;20068;-77
2022/03/14 04:09:30;;;;;;;22.83;10.63;;;;;;;;;;6245316;28;20045;-78
2022/03/14 04:12:34;;;;;;;31.13;11.20;;;;;;;;;;6245605;28;20064;-78
2022/03/14 04:15:46;;;;;;;24.67;10.02;;;;;;;;;;6245224;28;20587;-78
2022/03/14 04:18:49;;;;;;;27.67;9.75;;;;;;;;;;6245289;28;20041;-77
2022/03/14 04:21:55;;;;;;;27.23;10.77;;;;;;;;;;6245356;28;20057;-77
2022/03/14 04:24:58;;;;;;;20.45;9.73;;;;;;;;;;6243631;28;20369;-76
2022/03/14 04:28:03;;;;;;;22.60;10.25;;;;;;;;;;6244921;28;20049;-77
2022/03/14 04:31:06;;;;;;;22.08;10.05;;;;;;;;;;6226996;28;20539;-78
2022/03/14 04:34:10;;;;;;;22.13;9.55;;;;;;;;;;6244874;28;20048;-76
2022/03/14 04:37:13;;;;;;;23.40;10.57;;;;;;;;;;6243791;28;20132;-75
2022/03/14 04:40:19;;;;;;;24.17;11.10;;;;;;;;;;6243776;28;20088;-76
2022/03/14 04:43:24;;;;;;;26.38;10.57;;;;;;;;;;6243181;28;20053;-75
2022/03/14 04:46:27;;;;;;;29.48;11.73;;;;;;;;;;6242426;28;20052;-77
2022/03/14 04:49:32;;;;;;;29.00;11.83;;;;;;;;;;6241791;28;20404;-77
2022/03/14 04:52:35;;;;;;;28.48;12.93;;;;;;;;;;6241642;28;20549;-77
2022/03/14 04:55:38;;;;;;;29.65;13.15;;;;;;;;;;6241424;28;20057;-76
2022/03/14 04:58:43;;;;;;;26.77;11.45;;;;;;;;;;6241381;28;20041;-77
2022/03/14 05:01:48;;;;;;;29.40;11.85;;;;;;;;;;6241308;28;20150;-77
2022/03/14 05:04:52;;;;;;;27.60;12.13;;;;;;;;;;6242181;28;20049;-79
2022/03/14 05:07:55;;;;;;;25.67;12.48;;;;;;;;;;6244000;28;20049;-77
2022/03/14 05:10:58;;;;;;;22.98;11.82;;;;;;;;;;6244682;28;20034;-77
2022/03/14 05:14:03;;;;;;;29.52;13.05;;;;;;;;;;6243763;28;20492;-75
2022/03/14 05:17:08;;;;;;;23.60;11.23;;;;;;;;;;6226126;28;20101;-75
2022/03/14 05:20:14;;;;;;;23.45;11.63;;;;;;;;;;6244159;28;20052;-76
2022/03/14 05:23:17;;;;;;;30.58;12.10;;;;;;;;;;6243480;28;20048;-75
2022/03/14 05:26:22;;;;;;;25.40;11.90;;;;;;;;;;6243608;28;20045;-76
2022/03/14 05:29:27;;;;;;;25.60;10.63;;;;;;;;;;6243330;28;20045;-76
2022/03/14 05:32:31;;;;;;;26.75;11.13;;;;;;;;;;6243488;28;20534;-76
2022/03/14 05:35:39;;;;;;;27.90;12.43;;;;;;;;;;6243552;28;20127;-77
2022/03/14 05:38:44;;;;;;;35.00;13.52;;;;;;;;;;6225370;28;20135;-76
2022/03/14 05:41:47;;;;;;;28.73;11.97;;;;;;;;;;6242011;28;20056;-75
2022/03/14 05:44:52;;;;;;;26.90;12.85;;;;;;;;;;6243275;28;20049;-75
2022/03/14 05:47:55;;;;;;;27.50;13.63;;;;;;;;;;6242775;28;20041;-76
2022/03/14 05:51:00;;;;;;;32.17;13.38;;;;;;;;;;6241457;28;20146;-75
2022/03/14 05:54:06;;;;;;;32.28;13.48;;;;;;;;;;6242793;28;20476;-75
2022/03/14 05:57:09;;;;;;;27.95;12.93;;;;;;;;;;6242597;28;20050;-76
2022/03/14 06:00:16;;;;;;;30.30;14.52;;;;;;;;;;6242814;28;20076;-77
2022/03/14 06:03:21;;;;;;;29.90;12.98;;;;;;;;;;6242788;28;20068;-74
2022/03/14 06:06:24;;;;;;;27.55;14.15;;;;;;;;;;6241286;28;20052;-74
2022/03/14 06:09:28;;;;;;;24.75;12.75;;;;;;;;;;6242445;28;20037;-75
2022/03/14 06:12:34;;;;;;;29.05;13.43;;;;;;;;;;6242516;28;20428;-74
2022/03/14 06:15:38;;;;;;;30.38;14.48;;;;;;;;;;6242265;28;20050;-78
2022/03/14 06:18:42;;;;;;;30.80;14.63;;;;;;;;;;6242367;28;20056;-77
2022/03/14 06:21:47;;;;;;;43.17;18.30;;;;;;;;;;6242477;28;20049;-77
2022/03/14 06:24:51;;;;;;;34.00;16.23;;;;;;;;;;6242329;28;20455;-77
2022/03/14 06:27:56;;;;;;;30.27;14.73;;;;;;;;;;6242386;28;20506;-77
2022/03/14 06:31:00;;;;;;;35.22;15.50;;;;;;;;;;6242093;28;20045;-78
2022/03/14 06:34:03;;;;;;;35.88;15.20;;;;;;;;;;6242255;28;20092;-76
2022/03/14 06:37:08;;;;;;;27.20;13.88;;;;;;;;;;6241976;28;20062;-78
2022/03/14 06:40:14;;;;;;;28.95;15.20;;;;;;;;;;6242193;28;20051;-78
2022/03/14 06:43:17;;;;;;;28.30;14.77;;;;;;;;;;6241908;28;20052;-78
2022/03/14 06:46:24;;;;;;;31.45;15.05;;;;;;;;;;6240836;28;20057;-78
2022/03/14 06:49:28;;;;;;;32.22;15.82;;;;;;;;;;6240556;28;20447;-76
2022/03/14 06:52:31;;;;;;;30.50;14.98;;;;;;;;;;6241894;28;20415;-77
2022/03/14 06:55:34;;;;;;;30.48;14.93;;;;;;;;;;6241796;28;20049;-76
2022/03/14 06:58:37;;;;;;;31.60;15.77;;;;;;;;;;6241914;28;20411;-76
2022/03/14 07:01:43;;;;;;;29.65;15.30;;;;;;;;;;6240682;28;20107;-75
2022/03/14 07:04:48;;;;;;;31.38;16.02;;;;;;;;;;6242097;28;20415;-76
2022/03/14 07:07:51;;;;;;;31.88;16.00;;;;;;;;;;6241747;28;20049;-77
2022/03/14 07:10:55;;;;;;;33.90;16.15;;;;;;;;;;6244150;28;20346;-75
2022/03/14 07:14:00;;;;;;;28.33;14.95;;;;;;;;;;6246727;28;20069;-75
2022/03/14 07:17:05;;;;;;;29.60;14.90;;;;;;;;;;6246702;28;20374;-74
2022/03/14 07:20:11;;;;;;;34.25;15.73;;;;;;;;;;6246549;28;20402;-75
2022/03/14 07:23:14;;;;;;;28.48;14.77;;;;;;;;;;6245518;28;20051;-75
2022/03/14 07:26:17;;;;;;;27.98;14.75;;;;;;;;;;6245021;28;20052;-76
2022/03/14 07:29:20;;;;;;;30.08;14.82;;;;;;;;;;6246724;28;20064;-75
2022/03/14 07:32:27;;;;;;;28.08;13.75;;;;;;;;;;6246269;28;20064;-75
2022/03/14 07:35:30;;;;;;;28.63;15.10;;;;;;;;;;6246141;28;20064;-75
2022/03/14 07:38:33;;;;;;;27.65;15.48;;;;;;;;;;6246059;28;20126;-73
2022/03/14 07:41:37;;;;;;;27.10;14.10;;;;;;;;;;6228274;28;20041;-75
2022/03/14 07:44:40;;;;;;;25.33;14.10;;;;;;;;;;6245685;28;20041;-75
2022/03/14 07:47:45;;;;;;;28.63;14.57;;;;;;;;;;6244708;28;20045;-76
2022/03/14 07:50:48;;;;;;;29.85;15.32;;;;;;;;;;6228015;28;20049;-74
2022/03/14 07:53:55;;;;;;;26.83;14.15;;;;;;;;;;6245724;28;20046;-73
2022/03/14 07:56:59;;;;;;;26.70;15.02;;;;;;;;;;6245877;28;20044;-76
2022/03/14 08:00:02;;;;;;;26.73;14.15;;;;;;;;;;6245690;28;20456;-75
2022/03/14 08:03:06;;;;;;;33.65;14.88;;;;;;;;;;6244282;28;20404;-74
2022/03/14 08:06:22;;;;;;;23.77;13.38;;;;;;;;;;6245378;28;20045;-77
2022/03/14 08:09:29;;;;;;;26.08;14.02;;;;;;;;;;6245390;28;20050;-77
2022/03/14 08:12:33;;;;;;;25.10;13.95;;;;;;;;;;6245431;28;20049;-78
2022/03/14 08:15:43;;;;;;;24.75;14.18;;;;;;;;;;6243597;28;20048;-75
2022/03/14 08:18:49;;;;;;;24.27;13.60;;;;;;;;;;6245080;28;20048;-75
2022/03/14 08:21:54;;;;;;;24.63;14.45;;;;;;;;;;6243616;28;20050;-77
2022/03/14 08:24:57;;;;;;;23.67;13.60;;;;;;;;;;6244746;28;20057;-77
2022/03/14 08:28:03;;;;;;;;;;;;;;;;;;6245468;28;20065;-78
2022/03/14 08:31:06;;;;;;;24.33;12.48;;;;;;;;;;6244644;28;19928;-78
2022/03/14 08:34:11;;;;;;;23.83;12.68;;;;;;;;;;6243321;28;20045;-76
2022/03/14 08:37:14;;;;;;;22.02;11.88;;;;;;;;;;6244415;28;20064;-76
2022/03/14 08:40:20;;;;;;;19.60;11.50;;;;;;;;;;6243185;28;20107;-76
2022/03/14 08:43:23;;;;;;;19.83;10.43;;;;;;;;;;6244399;28;20045;-75
2022/03/14 08:46:26;;;;;;;21.13;10.40;;;;;;;;;;6244689;28;20100;-76
2022/03/14 08:49:30;;;;;;;19.88;10.05;;;;;;;;;;6244427;28;20115;-77
2022/03/14 08:52:34;;;;;;;18.83;9.20;;;;;;;;;;6226234;28;20049;-76
2022/03/14 08:55:37;;;;;;;18.85;9.63;;;;;;;;;;6244127;28;20045;-75
2022/03/14 08:58:40;;;;;;;18.10;9.88;;;;;;;;;;6244569;28;20397;-79
2022/03/14 09:01:43;;;;;;;16.73;9.30;;;;;;;;;;6244216;28;20053;-76
2022/03/14 09:04:47;;;;;;;18.95;9.10;;;;;;;;;;6243784;28;20442;-79
2022/03/14 09:07:52;;;;;;;18.63;9.68;;;;;;;;;;6244470;28;20045;-85
2022/03/14 09:10:58;;;;;;;20.25;9.40;;;;;;;;;;6226355;28;20060;-86
2022/03/14 09:14:01;;;;;;;16.75;8.95;;;;;;;;;;6244343;28;20045;-86
2022/03/14 09:17:04;;;;;;;20.17;9.25;;;;;;;;;;6242246;28;20068;-83
2022/03/14 09:20:09;;;;;;;20.92;9.68;;;;;;;;;;6243607;28;20052;-81
2022/03/14 09:23:12;;;;;;;13.30;7.67;;;;;;;;;;6244533;28;20048;-81
2022/03/14 09:26:15;;;;;;;15.63;7.85;;;;;;;;;;6242843;28;20052;-83
2022/03/14 09:29:18;;;;;;;11.73;7.03;;;;;;;;;;6243824;28;20049;-84
2022/03/14 09:32:21;;;;;;;21.02;8.68;;;;;;;;;;6241420;28;20487;-82
2022/03/14 09:35:26;;;;;;;13.60;7.32;;;;;;;;;;6242503;28;20420;-82
2022/03/14 09:38:29;;;;;;;14.23;7.68;;;;;;;;;;6243653;28;20063;-82
2022/03/14 09:41:34;;;;;;;14.30;7.93;;;;;;;;;;6225431;28;20158;-80
2022/03/14 09:44:40;;;;;;;15.65;8.48;;;;;;;;;;6242931;28;20045;-81
2022/03/14 09:47:46;;;;;;;16.40;9.10;;;;;;;;;;6243107;28;20057;-84
2022/03/14 09:50:50;;;;;;;16.27;7.72;;;;;;;;;;6242608;28;20045;-84
2022/03/14 09:53:53;;;;;;;18.23;9.38;;;;;;;;;;6242918;28;20049;-83
2022/03/14 09:56:57;;;;;;;13.93;7.57;;;;;;;;;;6242624;28;20056;-79
2022/03/14 10:00:00;;;;;;;13.38;7.65;;;;;;;;;;6242786;28;20046;-79
2022/03/14 10:03:04;;;;;;;15.98;8.18;;;;;;;;;;6242414;28;20134;-85
2022/03/14 10:06:09;;;;;;;19.30;9.05;;;;;;;;;;6242422;28;20480;-83
2022/03/14 10:09:12;;;;;;;17.85;9.57;;;;;;;;;;6242490;28;20056;-76
2022/03/14 10:12:16;;;;;;;18.90;9.63;;;;;;;;;;6242724;28;20057;-76
2022/03/14 10:15:19;;;;;;;14.15;8.45;;;;;;;;;;6242237;28;20050;-81
2022/03/14 10:18:22;;;;;;;15.30;8.23;;;;;;;;;;6242025;28;20068;-78
2022/03/14 10:21:33;;;;;;;14.65;8.48;;;;;;;;;;6240981;28;20042;-76
2022/03/14 10:24:38;;;;;;;15.98;7.20;;;;;;;;;;6242171;28;20049;-77
2022/03/14 10:27:45;;;;;;;12.40;7.18;;;;;;;;;;6241936;28;20045;-75
2022/03/14 10:30:49;;;;;;;11.25;6.72;;;;;;;;;;6242351;28;20553;-85
2022/03/14 10:33:57;;;;;;;11.43;7.18;;;;;;;;;;6242826;28;20079;-76
2022/03/14 10:37:04;;;;;;;10.88;6.50;;;;;;;;;;6241693;28;20080;-77
2022/03/14 10:40:08;;;;;;;11.95;5.90;;;;;;;;;;6223936;28;20088;-77
2022/03/14 10:43:21;;;;;;;10.93;6.22;;;;;;;;;;6241837;28;20489;-78
2022/03/14 10:46:27;;;;;;;15.88;6.47;;;;;;;;;;6241350;28;20046;-81
2022/03/14 10:49:30;;;;;;;11.60;5.82;;;;;;;;;;6241744;28;20053;-79
2022/03/14 10:52:34;;;;;;;10.23;6.10;;;;;;;;;;6241696;28;20179;-77
2022/03/14 10:55:39;;;;;;;10.95;5.50;;;;;;;;;;6242378;28;20057;-80
2022/03/14 10:58:43;;;;;;;10.60;5.43;;;;;;;;;;6241677;28;20053;-78
2022/03/14 11:01:58;;;;;;;8.13;5.10;;;;;;;;;;6241394;28;20050;-80
2022/03/14 11:05:03;;;;;;;10.77;6.00;;;;;;;;;;6223895;28;20049;-75
2022/03/14 11:08:25;;;;;;;9.00;5.57;;;;;;;;;;6241429;28;20049;-82
2022/03/14 11:11:27;;;;;;;13.65;6.18;;;;;;;;;;6223555;28;20052;-79
2022/03/14 11:14:30;;;;;;;7.95;5.47;;;;;;;;;;6240121;28;20049;-82
2022/03/14 11:17:34;;;;;;;59.17;30.92;;;;;;;;;;6241654;28;20535;-76
2022/03/14 11:20:59;;;;;;;12.73;6.30;;;;;;;;;;6241666;28;20049;-76
2022/03/14 11:24:04;;;;;;;10.03;6.07;;;;;;;;;;6241205;28;20184;-77
2022/03/14 11:27:07;;;;;;;;;;;;;;;;;;6241902;28;20412;-78
2022/03/14 11:30:11;;;;;;;9.07;5.63;;;;;;;;;;6241604;28;20155;-76
2022/03/14 11:33:15;;;;;;;37.15;21.58;;;;;;;;;;6241202;28;20407;-76
2022/03/14 11:36:18;;;;;;;12.07;7.15;;;;;;;;;;6239654;28;20100;-75
2022/03/14 11:39:23;;;;;;;10.23;6.43;;;;;;;;;;6241542;28;20436;-74
2022/03/14 11:42:26;;;;;;;9.23;5.70;;;;;;;;;;6239776;28;20041;-77
2022/03/14 11:45:30;;;;;;;9.93;5.68;;;;;;;;;;6223187;28;20447;-77
2022/03/14 11:48:34;;;;;;;10.30;5.63;;;;;;;;;;6240908;28;20041;-80
2022/03/14 11:51:41;;;;;;;11.30;6.70;;;;;;;;;;6223277;28;20061;-77
2022/03/14 11:54:48;;;;;;;10.45;5.75;;;;;;;;;;6241134;28;20128;-75
2022/03/14 11:57:51;;;;;;;12.60;5.80;;;;;;;;;;6244639;28;20049;-77
2022/03/14 12:00:54;;;;;;;13.73;6.25;;;;;;;;;;6227516;28;20085;-74
2022/03/14 12:03:58;;;;;;;8.50;5.28;;;;;;;;;;6245209;28;20526;-77
2022/03/14 12:07:22;;;;;;;11.98;6.10;;;;;;;;;;6245328;28;20057;-76
2022/03/14 12:10:31;;;;;;;10.52;6.10;;;;;;;;;;6244950;28;20561;-76
2022/03/14 12:13:41;;;;;;;8.65;5.28;;;;;;;;;;6245207;28;20053;-77
2022/03/14 12:16:45;;;;;;;12.05;6.88;;;;;;;;;;6245384;28;20480;-76
2022/03/14 12:19:48;;;;;;;11.38;5.90;;;;;;;;;;6244770;28;20049;-77
2022/03/14 12:22:51;;;;;;;9.95;5.93;;;;;;;;;;6245237;28;20259;-77
2022/03/14 12:25:56;;;;;;;9.18;5.85;;;;;;;;;;6245066;28;20041;-77
2022/03/14 12:29:19;;;;;;;9.48;6.53;;;;;;;;;;6244690;28;20071;-79
2022/03/14 12:32:32;;;;;;;11.65;5.93;;;;;;;;;;6226798;28;20055;-83
2022/03/14 12:35:37;;;;;;;10.77;6.13;;;;;;;;;;6244798;28;20053;-80
2022/03/14 12:38:41;;;;;;;10.57;6.13;;;;;;;;;;6243302;28;20049;-75
2022/03/14 12:41:46;;;;;;;12.90;5.80;;;;;;;;;;6244487;28;20496;-77
2022/03/14 12:45:04;;;;;;;12.55;5.93;;;;;;;;;;6244691;28;20123;-83
2022/03/14 12:48:15;;;;;;;9.18;5.22;;;;;;;;;;6244457;28;20295;-82
2022/03/14 12:51:24;;;;;;;12.60;5.57;;;;;;;;;;6243305;28;20522;-85
2022/03/14 12:54:34;;;;;;;11.55;5.90;;;;;;;;;;6244391;28;20046;-84
2022/03/14 12:57:38;;;;;;;10.82;6.68;;;;;;;;;;6244838;28;20408;-86
2022/03/14 13:00:41;;;;;;;9.70;6.35;;;;;;;;;;6242048;28;20526;-85
2022/03/14 13:03:58;;;;;;;10.98;6.70;;;;;;;;;;6243044;28;20488;-86
2022/03/14 13:07:01;;;;;;;8.27;5.57;;;;;;;;;;6243907;28;20574;-82
2022/03/14 13:10:16;;;;;;;11.77;6.32;;;;;;;;;;6242415;28;20558;-86
2022/03/14 13:13:25;;;;;;;9.75;5.57;;;;;;;;;;6240898;28;20057;-83
2022/03/14 13:16:29;;;;;;;9.32;5.65;;;;;;;;;;6241231;28;20044;-81
2022/03/14 13:19:33;;;;;;;11.15;6.35;;;;;;;;;;6223208;28;20400;-82
2022/03/14 13:22:36;;;;;;;10.40;6.03;;;;;;;;;;6242946;28;20049;-82
2022/03/14 13:25:43;;;;;;;10.05;6.47;;;;;;;;;;6244792;28;20049;-83
2022/03/14 13:28:50;;;;;;;9.85;6.38;;;;;;;;;;6248679;28;20417;-87
2022/03/14 13:31:53;;;;;;;;;;;;;;;;;;6247873;28;20373;-84
2022/03/14 13:35:05;;;;;;;11.45;6.25;;;;;;;;;;6243429;28;19921;-84
2022/03/14 13:38:11;;;;;;;12.77;6.22;;;;;;;;;;6243052;28;20107;-82
2022/03/14 13:41:15;;;;;;;10.65;5.22;;;;;;;;;;6243060;28;20435;-84
2022/03/14 13:44:20;;;;;;;9.65;5.07;;;;;;;;;;6243550;28;20049;-82
2022/03/14 13:47:24;;;;;;;12.20;5.47;;;;;;;;;;6241416;28;20155;-84
2022/03/14 13:50:28;;;;;;;9.00;5.47;;;;;;;;;;6243277;28;20045;-83
2022/03/14 13:53:31;;;;;;;10.25;5.60;;;;;;;;;;6243309;28;20501;-85
2022/03/14 13:56:41;;;;;;;8.13;4.93;;;;;;;;;;6243246;28;20046;-86
2022/03/14 13:59:49;;;;;;;6.60;4.53;;;;;;;;;;6242694;28;20115;-83
2022/03/14 14:02:58;;;;;;;8.98;5.13;;;;;;;;;;6225329;28;20425;-88
2022/03/14 14:06:13;;;;;;;9.40;5.07;;;;;;;;;;6226163;28;20045;-86
2022/03/14 14:09:20;;;;;;;6.72;4.53;;;;;;;;;;6243134;28;20549;-87
2022/03/14 14:12:24;;;;;;;10.20;5.22;;;;;;;;;;6242900;28;20203;-87
2022/03/14 14:15:41;;;;;;;6.90;4.80;;;;;;;;;;6242892;28;20416;-85
2022/03/14 14:19:06;;;;;;;9.73;4.93;;;;;;;;;;6240647;28;20546;-87
2022/03/14 14:22:11;;;;;;;8.35;5.07;;;;;;;;;;6241924;28;20588;-84
2022/03/14 14:25:20;;;;;;;12.07;5.13;;;;;;;;;;6242221;28;20045;-83
2022/03/14 14:28:23;;;;;;;8.90;5.60;;;;;;;;;;6243245;28;20049;-81
2022/03/14 14:31:33;;;;;;;10.65;5.30;;;;;;;;;;6224600;28;20156;-81
2022/03/14 14:34:36;;;;;;;9.20;5.67;;;;;;;;;;6241680;28;20488;-83
2022/03/14 14:37:39;;;;;;;9.20;5.25;;;;;;;;;;6240596;28;20116;-81
2022/03/14 14:40:43;;;;;;;9.27;5.55;;;;;;;;;;6242902;28;20049;-81
2022/03/14 14:43:46;;;;;;;8.15;5.60;;;;;;;;;;6241908;28;20048;-82
2022/03/14 14:46:50;;;;;;;8.50;5.55;;;;;;;;;;6240229;28;20046;-82
2022/03/14 14:49:53;;;;;;;7.90;5.10;;;;;;;;;;6242166;28;20128;-81
2022/03/14 14:52:56;;;;;;;7.70;5.20;;;;;;;;;;6242164;28;20056;-83
2022/03/14 14:56:00;;;;;;;11.20;5.50;;;;;;;;;;6241939;28;20124;-84
2022/03/14 14:59:03;;;;;;;9.32;4.88;;;;;;;;;;6242050;28;20049;-81
2022/03/14 15:02:10;;;;;;;14.85;4.93;;;;;;;;;;6241959;28;20056;-86
2022/03/14 15:05:15;;;;;;;9.85;5.35;;;;;;;;;;6241781;28;20108;-80
2022/03/14 15:08:19;;;;;;;9.82;5.57;;;;;;;;;;6241421;28;20056;-80
2022/03/14 15:11:22;;;;;;;33.45;18.05;;;;;;;;;;6224395;28;20054;-81
2022/03/14 15:14:27;;;;;;;9.15;5.70;;;;;;;;;;6241509;28;20077;-82
2022/03/14 15:17:35;;;;;;;10.10;5.47;;;;;;;;;;6242014;28;20264;-79
2022/03/14 15:20:38;;;;;;;8.25;5.13;;;;;;;;;;6239792;28;20053;-79
2022/03/14 15:23:41;;;;;;;7.70;5.00;;;;;;;;;;6239758;28;20053;-80
2022/03/14 15:26:44;;;;;;;9.25;4.95;;;;;;;;;;6238875;28;20154;-79
2022/03/14 15:29:48;;;;;;;7.70;4.50;;;;;;;;;;6237139;28;20056;-79
2022/03/14 15:32:52;;;;;;;8.95;5.45;;;;;;;;;;6243616;28;20119;-79
2022/03/14 15:35:55;;;;;;;7.03;4.78;;;;;;;;;;6244104;28;20057;-79
2022/03/14 15:38:59;;;;;;;7.80;4.80;;;;;;;;;;6244205;28;20079;-79
2022/03/14 15:42:08;;;;;;;8.00;4.68;;;;;;;;;;6245099;28;20427;-79
2022/03/14 15:45:12;;;;;;;9.25;4.60;;;;;;;;;;6244924;28;20496;-79
2022/03/14 15:48:16;;;;;;;9.85;5.38;;;;;;;;;;6245936;28;20099;-79
2022/03/14 15:51:19;;;;;;;10.00;5.18;;;;;;;;;;6245577;28;20692;-79
2022/03/14 15:54:23;;;;;;;10.60;5.05;;;;;;;;;;6246115;28;20530;-80
2022/03/14 15:57:26;;;;;;;8.50;4.78;;;;;;;;;;6245615;28;20175;-80
2022/03/14 16:00:29;;;;;;;10.75;5.30;;;;;;;;;;6244195;28;20048;-79
2022/03/14 16:03:34;;;;;;;11.02;5.43;;;;;;;;;;6228418;28;20048;-79
2022/03/14 16:06:37;;;;;;;7.72;4.72;;;;;;;;;;6245580;28;20046;-79
2022/03/14 16:09:40;;;;;;;8.48;4.47;;;;;;;;;;6245384;28;20046;-79
2022/03/14 16:12:43;;;;;;;10.35;5.50;;;;;;;;;;6245304;28;20060;-79
2022/03/14 16:15:49;;;;;;;8.48;5.22;;;;;;;;;;6244325;28;20415;-79
2022/03/14 16:18:53;;;;;;;10.77;5.45;;;;;;;;;;6245474;28;20042;-79
2022/03/14 16:21:56;;;;;;;11.63;5.18;;;;;;;;;;6244957;28;20042;-79
2022/03/14 16:24:59;;;;;;;10.82;5.60;;;;;;;;;;6245245;28;20041;-79
2022/03/14 16:28:02;;;;;;;16.00;6.65;;;;;;;;;;6244928;28;20053;-80
2022/03/14 16:31:05;;;;;;;24.63;8.73;;;;;;;;;;6244708;28;20045;-79
2022/03/14 16:34:09;;;;;;;20.77;9.10;;;;;;;;;;6245313;28;20411;-79
2022/03/14 16:37:12;;;;;;;26.42;11.93;;;;;;;;;;6244732;28;20050;-79
2022/03/14 16:40:18;;;;;;;19.83;9.07;;;;;;;;;;6244521;28;20411;-79
2022/03/14 16:43:22;;;;;;;15.48;6.15;;;;;;;;;;6244029;28;20402;-79
2022/03/14 16:46:25;;;;;;;14.32;5.45;;;;;;;;;;6244957;28;20132;-80
2022/03/14 16:49:32;;;;;;;12.82;5.05;;;;;;;;;;6244732;28;20045;-79
2022/03/14 16:52:35;;;;;;;11.80;5.07;;;;;;;;;;6226267;28;20059;-79
2022/03/14 16:55:41;;;;;;;10.23;5.10;;;;;;;;;;6244507;28;20049;-79
2022/03/14 16:58:45;;;;;;;12.48;5.00;;;;;;;;;;6244486;28;20128;-79
2022/03/14 17:01:48;;;;;;;12.82;4.95;;;;;;;;;;6244455;28;20049;-79
2022/03/14 17:04:53;;;;;;;15.60;6.55;;;;;;;;;;6243938;28;20092;-78
2022/03/14 17:07:56;;;;;;;13.05;5.22;;;;;;;;;;6244641;28;20053;-80
2022/03/14 17:10:58;;;;;;;18.40;5.55;;;;;;;;;;6244255;28;20046;-79
2022/03/14 17:14:01;;;;;;;20.05;5.47;;;;;;;;;;6242340;28;20056;-80
2022/03/14 17:17:14;;;;;;;13.63;6.32;;;;;;;;;;6244230;28;20046;-78
2022/03/14 17:20:18;;;;;;;12.77;5.30;;;;;;;;;;6243994;28;20412;-80
2022/03/14 17:23:21;;;;;;;11.93;5.55;;;;;;;;;;6243537;28;20546;-80
2022/03/14 17:26:24;;;;;;;11.63;5.43;;;;;;;;;;6243544;28;20519;-79
2022/03/14 17:29:27;;;;;;;17.20;5.22;;;;;;;;;;6243986;28;20041;-80
2022/03/14 17:32:32;;;;;;;16.45;5.88;;;;;;;;;;6243445;28;20423;-80
2022/03/14 17:35:37;;;;;;;13.57;6.40;;;;;;;;;;6242718;28;20434;-80
2022/03/14 17:38:40;;;;;;;11.10;6.47;;;;;;;;;;6242543;28;20071;-80
2022/03/14 17:41:44;;;;;;;12.77;6.07;;;;;;;;;;6243339;28;20041;-78
2022/03/14 17:44:47;;;;;;;13.20;5.47;;;;;;;;;;6242981;28;20046;-81
2022/03/14 17:47:52;;;;;;;13.35;5.18;;;;;;;;;;6242058;28;20056;-81
2022/03/14 17:50:58;;;;;;;16.45;5.93;;;;;;;;;;6243922;28;20123;-78
2022/03/14 17:54:00;;;;;;;12.05;5.43;;;;;;;;;;6242650;28;20033;-79
2022/03/14 17:57:04;;;;;;;13.95;6.22;;;;;;;;;;6241699;28;20045;-82
2022/03/14 18:00:07;;;;;;;11.48;6.40;;;;;;;;;;6243343;28;20128;-77
2022/03/14 18:03:19;;;;;;;11.70;6.20;;;;;;;;;;6242962;28;20046;-77
2022/03/14 18:06:23;;;;;;;13.27;5.63;;;;;;;;;;6242421;28;20053;-82
2022/03/14 18:09:26;;;;;;;11.52;5.47;;;;;;;;;;6242771;28;20115;-78